createdAt,value
2023-04-18T00:02:17.557Z,7.82
2023-04-18T00:05:24.770Z,7.81
2023-04-18T00:08:36.648Z,7.78
2023-04-18T00:11:43.531Z,7.84
2023-04-18T00:14:52.827Z,7.83
2023-04-18T00:18:03.791Z,7.77
2023-04-18T00:21:11.122Z,7.79
2023-04-18T00:24:22.855Z,7.79
2023-04-18T00:27:27.925Z,7.80
2023-04-18T00:30:35.587Z,7.79
2023-04-18T00:33:39.968Z,7.77
2023-04-18T00:36:42.860Z,7.78
2023-04-18T00:39:48.500Z,7.77
2023-04-18T00:42:52.119Z,7.77
2023-04-18T00:45:59.737Z,7.72
2023-04-18T00:49:02.690Z,7.73
2023-04-18T00:52:07.084Z,7.74
2023-04-18T00:55:15.624Z,7.72
2023-04-18T00:58:20.343Z,7.72
2023-04-18T01:01:24.503Z,7.72
2023-04-18T01:04:30.212Z,7.70
2023-04-18T01:07:33.972Z,7.71
2023-04-18T01:10:38.555Z,7.71
2023-04-18T01:13:41.053Z,7.69
2023-04-18T01:16:44.034Z,7.68
2023-04-18T01:19:50.097Z,7.68
2023-04-18T01:23:01.467Z,7.68
2023-04-18T01:26:05.219Z,7.66
2023-04-18T01:29:08.826Z,7.65
2023-04-18T01:32:14.936Z,7.63
2023-04-18T01:35:17.863Z,7.64
2023-04-18T01:38:25.162Z,7.62
2023-04-18T01:41:35.019Z,7.60
2023-04-18T01:44:39.689Z,7.59
2023-04-18T01:47:45.116Z,7.55
2023-04-18T01:50:49.941Z,7.56
2023-04-18T01:53:54.043Z,7.55
2023-04-18T01:56:58.164Z,7.51
2023-04-18T02:00:02.971Z,7.50
2023-04-18T02:03:18.101Z,7.48
2023-04-18T02:06:24.236Z,7.47
2023-04-18T02:09:31.209Z,7.46
2023-04-18T02:12:36.343Z,7.45
2023-04-18T02:15:43.424Z,7.45
2023-04-18T02:18:53.139Z,7.40
2023-04-18T02:22:05.082Z,7.41
2023-04-18T02:25:11.204Z,7.39
2023-04-18T02:28:14.607Z,7.40
2023-04-18T02:31:18.389Z,7.40
2023-04-18T02:34:20.000Z,7.37
2023-04-18T02:37:25.012Z,7.36
2023-04-18T02:40:29.685Z,7.37
2023-04-18T02:43:35.021Z,7.33
2023-04-18T02:46:37.874Z,7.34
2023-04-18T02:49:59.404Z,7.33
2023-04-18T02:53:06.453Z,7.31
2023-04-18T02:56:32.162Z,7.30
2023-04-18T02:59:57.870Z,7.32
2023-04-18T03:03:20.568Z,7.31
2023-04-18T03:06:48.147Z,7.28
2023-04-18T03:09:54.175Z,7.27
2023-04-18T03:13:07.676Z,7.26
2023-04-18T03:16:17.701Z,7.25
2023-04-18T03:19:28.580Z,7.22
2023-04-18T03:22:35.696Z,7.19
2023-04-18T03:25:40.770Z,7.17
2023-04-18T03:28:43.834Z,7.16
2023-04-18T03:31:49.146Z,7.14
2023-04-18T03:34:53.461Z,7.15
2023-04-18T03:37:59.638Z,7.13
2023-04-18T03:41:07.971Z,7.12
2023-04-18T03:44:13.514Z,7.08
2023-04-18T03:47:19.721Z,7.04
2023-04-18T03:50:28.519Z,7.06
2023-04-18T03:53:32.704Z,7.02
2023-04-18T03:56:36.450Z,7.03
2023-04-18T03:59:43.902Z,7.02
2023-04-18T04:02:46.440Z,7.02
2023-04-18T04:05:59.275Z,7.01
2023-04-18T04:09:06.420Z,6.99
2023-04-18T04:12:09.246Z,6.95
2023-04-18T04:15:25.390Z,6.94
2023-04-18T04:18:35.907Z,6.91
2023-04-18T04:21:38.734Z,6.91
2023-04-18T04:24:46.982Z,6.89
2023-04-18T04:27:54.684Z,6.87
2023-04-18T04:30:59.528Z,6.85
2023-04-18T04:34:05.252Z,6.84
2023-04-18T04:37:10.480Z,6.83
2023-04-18T04:40:25.799Z,6.85
2023-04-18T04:43:31.431Z,6.83
2023-04-18T04:46:36.868Z,6.86
2023-04-18T04:49:42.234Z,6.85
2023-04-18T04:52:49.851Z,6.84
2023-04-18T04:55:55.133Z,6.84
2023-04-18T04:58:59.193Z,6.84
2023-04-18T05:02:24.785Z,6.83
2023-04-18T05:05:31.319Z,6.82
2023-04-18T05:08:39.103Z,6.77
2023-04-18T05:11:42.679Z,6.82
2023-04-18T05:14:44.831Z,6.88
2023-04-18T05:17:46.737Z,6.89
2023-04-18T05:20:53.891Z,6.91
2023-04-18T05:23:57.127Z,6.92
2023-04-18T05:26:59.609Z,6.93
2023-04-18T05:30:04.354Z,6.94
2023-04-18T05:33:09.672Z,6.95
2023-04-18T05:36:23.134Z,6.93
2023-04-18T05:39:28.536Z,6.98
2023-04-18T05:42:35.073Z,6.94
2023-04-18T05:45:39.197Z,6.96
2023-04-18T05:48:43.156Z,6.98
2023-04-18T05:51:46.561Z,7.00
2023-04-18T05:54:49.649Z,7.00
2023-04-18T05:57:54.059Z,7.01
2023-04-18T06:00:57.768Z,7.00
2023-04-18T06:04:02.401Z,7.04
2023-04-18T06:07:08.337Z,7.03
2023-04-18T06:10:14.195Z,7.02
2023-04-18T06:13:18.666Z,7.10
2023-04-18T06:16:23.227Z,7.14
2023-04-18T06:19:25.490Z,7.12
2023-04-18T06:22:29.685Z,7.17
2023-04-18T06:25:37.040Z,7.21
2023-04-18T06:28:42.108Z,7.20
2023-04-18T06:31:49.864Z,7.25
2023-04-18T06:34:58.957Z,7.29
2023-04-18T06:38:13.217Z,7.31
2023-04-18T06:41:17.764Z,7.35
2023-04-18T06:44:20.170Z,7.36
2023-04-18T06:47:25.662Z,7.38
2023-04-18T06:50:32.975Z,7.39
2023-04-18T06:53:36.517Z,7.42
2023-04-18T06:56:40.015Z,7.49
2023-04-18T06:59:55.326Z,7.56
2023-04-18T07:03:02.163Z,7.62
2023-04-18T07:06:08.463Z,7.67
2023-04-18T07:09:10.931Z,7.76
2023-04-18T07:12:13.941Z,7.75
2023-04-18T07:15:17.853Z,7.84
2023-04-18T07:18:36.699Z,7.94
2023-04-18T07:21:44.361Z,8.01
2023-04-18T07:24:47.939Z,8.10
2023-04-18T07:28:00.462Z,8.20
2023-04-18T07:31:06.647Z,8.33
2023-04-18T07:34:10.409Z,8.42
2023-04-18T07:37:17.508Z,8.45
2023-04-18T07:40:21.210Z,8.52
2023-04-18T07:43:24.753Z,8.58
2023-04-18T07:46:31.225Z,8.65
2023-04-18T07:49:34.654Z,8.72
2023-04-18T07:52:45.740Z,8.80
2023-04-18T07:55:51.207Z,8.87
2023-04-18T07:59:07.956Z,8.94
2023-04-18T08:02:11.892Z,9.00
2023-04-18T08:05:16.625Z,9.05
2023-04-18T08:08:19.761Z,9.10
2023-04-18T08:11:21.752Z,9.20
2023-04-18T08:14:26.533Z,9.30
2023-04-18T08:17:38.349Z,9.37
2023-04-18T08:20:43.297Z,9.48
2023-04-18T08:23:47.046Z,9.61
2023-04-18T08:26:50.498Z,9.72
2023-04-18T08:30:00.816Z,9.87
2023-04-18T08:33:04.273Z,9.96
2023-04-18T08:36:08.426Z,10.05
2023-04-18T08:39:11.816Z,10.17
2023-04-18T08:42:19.826Z,10.28
2023-04-18T08:45:21.540Z,10.36
2023-04-18T08:48:23.601Z,10.49
2023-04-18T08:51:27.139Z,10.54
2023-04-18T08:54:30.861Z,10.59
2023-04-18T08:57:35.634Z,10.63
2023-04-18T09:00:38.278Z,10.69
2023-04-18T09:03:44.383Z,10.68
2023-04-18T09:06:55.596Z,10.67
2023-04-18T09:10:01.889Z,10.66
2023-04-18T09:13:04.826Z,10.63
2023-04-18T09:16:09.784Z,10.59
2023-04-18T09:19:19.259Z,10.61
2023-04-18T09:22:22.958Z,10.68
2023-04-18T09:25:48.743Z,10.79
2023-04-18T09:28:54.055Z,10.89
2023-04-18T09:32:01.187Z,10.92
2023-04-18T09:35:09.783Z,10.96
2023-04-18T09:38:13.901Z,10.99
2023-04-18T09:41:19.927Z,10.99
2023-04-18T09:44:26.243Z,10.95
2023-04-18T09:50:47.385Z,10.91
2023-04-18T09:53:53.356Z,10.92
2023-04-18T09:57:06.292Z,10.95
2023-04-18T10:00:24.680Z,10.99
2023-04-18T10:03:37.863Z,10.96
2023-04-18T10:06:44.558Z,10.91
2023-04-18T10:09:46.890Z,10.93
2023-04-18T10:12:54.292Z,10.95
2023-04-18T10:15:56.924Z,10.99
2023-04-18T10:19:26.485Z,11.02
2023-04-18T10:22:28.678Z,11.02
2023-04-18T10:25:39.565Z,10.99
2023-04-18T10:28:53.463Z,10.99
2023-04-18T10:31:55.980Z,10.97
2023-04-18T10:34:59.712Z,11.04
2023-04-18T10:38:01.992Z,11.04
2023-04-18T10:41:17.191Z,11.06
2023-04-18T10:44:21.876Z,11.05
2023-04-18T10:47:37.009Z,11.04
2023-04-18T10:51:25.310Z,11.09
2023-04-18T10:54:44.171Z,11.13
2023-04-18T10:57:47.772Z,11.20
2023-04-18T11:00:54.077Z,11.24
2023-04-18T11:03:57.201Z,11.27
2023-04-18T11:07:01.323Z,11.32
2023-04-18T11:10:07.465Z,11.37
2023-04-18T11:13:10.595Z,11.36
2023-04-18T11:16:28.581Z,11.34
2023-04-18T11:19:30.656Z,11.36
2023-04-18T11:22:32.349Z,11.38
2023-04-18T11:25:40.595Z,11.44
2023-04-18T11:28:43.068Z,11.49
2023-04-18T11:31:51.984Z,11.53
2023-04-18T11:34:55.200Z,11.55
2023-04-18T11:37:56.838Z,11.54
2023-04-18T11:40:58.391Z,11.54
2023-04-18T11:44:01.410Z,11.58
2023-04-18T11:47:03.444Z,11.54
2023-04-18T11:50:07.750Z,11.55
2023-04-18T11:53:09.538Z,11.56
2023-04-18T11:56:13.344Z,11.61
2023-04-18T11:59:16.187Z,11.63
2023-04-18T12:02:18.548Z,11.60
2023-04-18T12:05:31.242Z,11.53
2023-04-18T12:08:33.472Z,11.46
2023-04-18T12:11:35.643Z,11.38
2023-04-18T12:14:37.252Z,11.30
2023-04-18T12:17:39.447Z,11.27
2023-04-18T12:20:54.551Z,11.26
2023-04-18T12:23:57.753Z,11.26
2023-04-18T12:26:59.727Z,11.27
2023-04-18T12:30:03.440Z,11.28
2023-04-18T12:33:05.579Z,11.32
2023-04-18T12:36:11.178Z,11.34
2023-04-18T12:39:13.338Z,11.33
2023-04-18T12:42:15.476Z,11.33
2023-04-18T12:45:18.521Z,11.34
2023-04-18T12:48:20.663Z,11.34
2023-04-18T12:51:23.769Z,11.36
2023-04-18T12:54:25.901Z,11.42
2023-04-18T12:57:31.873Z,11.45
2023-04-18T13:00:34.104Z,11.52
2023-04-18T13:03:36.711Z,11.57
2023-04-18T13:06:38.411Z,11.62
2023-04-18T13:09:39.979Z,11.69
2023-04-18T13:12:43.452Z,11.76
2023-04-18T13:15:45.607Z,11.85
2023-04-18T13:18:47.603Z,11.88
2023-04-18T13:21:50.088Z,11.93
2023-04-18T13:24:52.031Z,11.94
2023-04-18T13:27:58.731Z,11.93
2023-04-18T13:31:01.646Z,11.92
2023-04-18T13:34:09.321Z,11.88
2023-04-18T13:37:11.909Z,11.89
2023-04-18T13:40:13.705Z,11.82
2023-04-18T13:43:15.495Z,11.73
2023-04-18T13:46:17.754Z,11.69
2023-04-18T13:49:20.068Z,11.62
2023-04-18T13:52:22.050Z,11.56
2023-04-18T13:55:25.816Z,11.53
2023-04-18T13:58:28.013Z,11.54
2023-04-18T14:01:31.915Z,11.53
2023-04-18T14:04:36.178Z,11.53
2023-04-18T14:07:40.623Z,11.54
2023-04-18T14:10:42.223Z,11.55
2023-04-18T14:13:44.841Z,11.57
2023-04-18T14:16:46.710Z,11.57
2023-04-18T14:48:36.062Z,10.96
2023-04-18T14:51:38.187Z,10.93
2023-04-18T14:54:39.796Z,10.91
2023-04-18T14:57:42.382Z,10.87
2023-04-18T15:00:44.850Z,10.83
2023-04-18T15:03:50.237Z,10.82
2023-04-18T15:06:52.465Z,10.79
2023-04-18T15:09:55.229Z,10.76
2023-04-18T15:12:57.027Z,10.76
2023-04-18T15:16:00.037Z,10.73
2023-04-18T15:19:03.268Z,10.72
2023-04-18T15:22:05.766Z,10.66
2023-04-18T15:25:16.436Z,10.67
2023-04-18T15:28:19.239Z,10.65
2023-04-18T15:31:21.859Z,10.66
2023-04-18T15:34:26.303Z,10.66
2023-04-18T15:37:29.158Z,10.68
2023-04-18T15:40:33.049Z,10.67
2023-04-18T15:43:34.971Z,10.63
2023-04-18T15:46:36.780Z,10.61
2023-04-18T15:49:39.004Z,10.60
2023-04-18T15:52:41.796Z,10.59
2023-04-18T15:55:43.420Z,10.58
2023-04-18T15:58:45.057Z,10.61
2023-04-18T16:01:46.732Z,10.61
2023-04-18T16:04:49.598Z,10.63
2023-04-18T16:07:53.830Z,10.66
2023-04-18T16:10:55.996Z,10.65
2023-04-18T16:13:57.601Z,10.62
2023-04-18T16:16:59.730Z,10.58
2023-04-18T16:20:01.790Z,10.59
2023-04-18T16:23:04.311Z,10.56
2023-04-18T16:26:08.566Z,10.57
2023-04-18T16:29:10.662Z,10.56
2023-04-18T16:32:12.224Z,10.54
2023-04-18T16:35:14.647Z,10.57
2023-04-18T16:38:16.752Z,10.53
2023-04-18T16:41:19.559Z,10.48
2023-04-18T16:44:21.580Z,10.46
2023-04-18T16:47:24.310Z,10.42
2023-04-18T16:50:26.478Z,10.41
2023-04-18T16:53:28.303Z,10.40
2023-04-18T16:56:33.754Z,10.38
2023-04-18T16:59:35.459Z,10.37
2023-04-18T17:02:42.722Z,10.33
2023-04-18T17:05:45.604Z,10.34
2023-04-18T17:08:48.891Z,10.33
2023-04-18T17:11:50.683Z,10.30
2023-04-18T17:14:56.078Z,10.31
2023-04-18T17:18:00.360Z,10.30
2023-04-18T17:21:02.142Z,10.25
2023-04-18T17:24:06.004Z,10.27
2023-04-18T17:27:09.165Z,10.25
2023-04-18T17:30:13.932Z,10.24
2023-04-18T17:33:16.795Z,10.24
2023-04-18T17:36:21.542Z,10.21
2023-04-18T17:39:23.572Z,10.22
2023-04-18T17:42:25.460Z,10.17
2023-04-18T17:45:27.643Z,10.16
2023-04-18T17:48:30.299Z,10.15
2023-04-18T17:51:32.617Z,10.10
2023-04-18T17:54:34.801Z,10.07
2023-04-18T17:57:36.428Z,10.06
2023-04-18T18:00:41.696Z,10.02
2023-04-18T18:03:44.553Z,10.00
2023-04-18T18:06:56.865Z,9.99
2023-04-18T18:09:58.917Z,9.98
2023-04-18T18:13:00.934Z,9.97
2023-04-18T18:16:12.133Z,9.95
2023-04-18T18:19:17.551Z,9.89
2023-04-18T18:22:21.460Z,9.92
2023-04-18T18:25:25.618Z,9.87
2023-04-18T18:28:27.315Z,9.88
2023-04-18T18:31:30.365Z,9.88
2023-04-18T18:34:34.990Z,9.86
2023-04-18T18:37:37.518Z,9.84
2023-04-18T18:40:39.693Z,9.85
2023-04-18T18:43:44.153Z,9.83
2023-04-18T18:47:00.482Z,9.69
2023-04-18T18:50:12.763Z,9.73
2023-04-18T18:53:17.974Z,9.74
2023-04-18T18:56:20.148Z,9.69
2023-04-18T18:59:30.714Z,9.65
2023-04-18T19:02:33.134Z,9.67
2023-04-18T19:05:35.890Z,9.61
2023-04-18T19:08:55.286Z,9.67
2023-04-18T19:11:58.463Z,9.55
2023-04-18T19:15:00.777Z,9.55
2023-04-18T19:18:04.879Z,9.60
2023-04-18T19:21:07.762Z,9.59
2023-04-18T19:24:14.287Z,9.59
2023-04-18T19:27:17.269Z,9.57
2023-04-18T19:30:19.534Z,9.57
2023-04-18T19:33:27.108Z,9.55
2023-04-18T19:36:29.682Z,9.54
2023-04-18T19:39:31.449Z,9.54
2023-04-18T19:42:33.040Z,9.49
2023-04-18T19:45:35.447Z,9.47
2023-04-18T19:48:37.939Z,9.49
2023-04-18T19:51:40.247Z,9.44
2023-04-18T19:54:41.851Z,9.47
2023-04-18T19:57:43.950Z,9.43
2023-04-18T20:00:46.385Z,9.45
2023-04-18T20:03:48.665Z,9.42
2023-04-18T20:06:50.869Z,9.37
2023-04-18T20:09:53.087Z,9.38
2023-04-18T20:12:54.666Z,9.35
2023-04-18T20:15:56.276Z,9.35
2023-04-18T20:18:57.996Z,9.34
2023-04-18T20:22:00.162Z,9.32
2023-04-18T20:25:01.801Z,9.29
2023-04-18T20:28:03.988Z,9.30
2023-04-18T20:31:06.098Z,9.28
2023-04-18T20:34:08.069Z,9.28
2023-04-18T20:37:10.072Z,9.28
2023-04-18T20:40:12.753Z,9.27
2023-04-18T20:43:17.790Z,9.23
2023-04-18T20:46:19.920Z,9.19
2023-04-18T20:49:21.886Z,9.23
2023-04-18T20:52:23.490Z,9.19
2023-04-18T20:55:26.206Z,9.15
2023-04-18T20:58:29.165Z,9.14
2023-04-18T21:01:31.671Z,9.12
2023-04-18T21:04:33.827Z,9.12
2023-04-18T21:07:36.302Z,9.11
2023-04-18T21:10:39.128Z,9.12
2023-04-18T21:13:41.140Z,9.10
2023-04-18T21:16:46.688Z,9.05
2023-04-18T21:19:49.655Z,9.09
2023-04-18T21:22:51.192Z,9.08
2023-04-18T21:25:53.208Z,9.08
2023-04-18T21:28:57.556Z,9.05
2023-04-18T21:31:59.648Z,9.04
2023-04-18T21:35:01.508Z,9.04
2023-04-18T21:38:03.667Z,9.04
2023-04-18T21:41:06.857Z,9.01
2023-04-18T21:44:08.433Z,8.99
2023-04-18T21:47:10.986Z,8.99
2023-04-18T21:50:13.150Z,8.99
2023-04-18T21:53:17.255Z,8.98
2023-04-18T21:56:19.403Z,8.97
2023-04-18T21:59:21.493Z,8.95
2023-04-18T22:02:28.357Z,8.96
2023-04-18T22:05:33.726Z,8.95
2023-04-18T22:08:36.662Z,8.92
2023-04-18T22:11:38.918Z,8.94
2023-04-18T22:14:48.160Z,8.89
2023-04-18T22:17:53.247Z,8.90
2023-04-18T22:20:55.279Z,8.92
2023-04-18T22:23:58.224Z,8.92
2023-04-18T22:27:03.761Z,8.90
2023-04-18T22:30:07.473Z,8.89
2023-04-18T22:33:09.453Z,8.89
2023-04-18T22:36:11.100Z,8.89
2023-04-18T22:39:13.830Z,8.86
2023-04-18T22:42:18.285Z,8.84
2023-04-18T22:45:20.478Z,8.83
2023-04-18T22:48:22.448Z,8.79
2023-04-18T22:51:33.016Z,8.79
2023-04-18T22:54:39.410Z,8.81
2023-04-18T22:57:41.608Z,8.78
2023-04-18T23:00:44.325Z,8.78
2023-04-18T23:03:46.547Z,8.78
2023-04-18T23:06:48.892Z,8.78
2023-04-18T23:09:50.891Z,8.80
2023-04-18T23:12:52.877Z,8.78
2023-04-18T23:15:55.240Z,8.74
2023-04-18T23:18:56.882Z,8.76
2023-04-18T23:22:00.468Z,8.75
2023-04-18T23:25:02.078Z,8.71
2023-04-18T23:28:06.468Z,8.70
2023-04-18T23:31:11.824Z,8.69
2023-04-18T23:34:14.003Z,8.66
2023-04-18T23:37:18.690Z,8.67
2023-04-18T23:40:20.880Z,8.67
2023-04-18T23:43:23.094Z,8.64
2023-04-18T23:46:25.999Z,8.65
2023-04-18T23:49:30.536Z,8.64
2023-04-18T23:52:32.559Z,8.63
2023-04-18T23:55:34.540Z,8.61
2023-04-18T23:58:37.166Z,8.59
